createdAt,value
2022-10-30T00:00:31.819Z,97978.84
2022-10-30T00:02:58.680Z,97987.41
2022-10-30T00:05:25.960Z,97983.16
2022-10-30T00:07:53.051Z,97972.88
2022-10-30T00:10:19.526Z,97976.28
2022-10-30T00:12:46.058Z,97968.59
2022-10-30T00:15:12.663Z,97962.66
2022-10-30T00:17:39.153Z,97952.91
2022-10-30T00:20:06.340Z,97969.47
2022-10-30T00:22:32.832Z,97969.41
2022-10-30T00:25:00.433Z,97971.16
2022-10-30T00:27:27.401Z,97976.28
2022-10-30T00:29:53.900Z,97971.16
2022-10-30T00:32:20.452Z,97978.00
2022-10-30T00:34:46.918Z,97976.28
2022-10-30T00:37:13.475Z,97971.16
2022-10-30T00:39:39.950Z,97967.75
2022-10-30T00:42:06.426Z,97970.31
2022-10-30T00:44:43.373Z,97971.09
2022-10-30T00:47:34.791Z,97974.53
2022-10-30T00:50:11.476Z,97968.59
2022-10-30T00:52:41.174Z,97972.03
2022-10-30T00:55:14.128Z,97963.47
2022-10-30T00:57:40.622Z,97970.31
2022-10-30T01:00:07.843Z,97967.75
2022-10-30T01:02:34.404Z,97963.22
2022-10-30T01:05:01.348Z,97960.81
2022-10-30T01:07:27.859Z,97970.31
2022-10-30T01:09:54.412Z,97967.66
2022-10-30T01:12:20.919Z,97968.59
2022-10-30T01:14:54.957Z,97957.28
2022-10-30T01:17:43.228Z,97974.59
2022-10-30T01:20:37.356Z,97967.78
2022-10-30T01:23:12.897Z,97967.78
2022-10-30T01:26:06.569Z,97960.06
2022-10-30T01:28:43.186Z,97950.56
2022-10-30T01:31:28.236Z,97957.50
2022-10-30T01:34:03.670Z,97963.47
2022-10-30T01:36:54.897Z,97961.72
2022-10-30T01:39:26.366Z,97959.06
2022-10-30T01:41:53.212Z,97959.94
2022-10-30T01:44:30.912Z,97956.47
2022-10-30T01:47:07.680Z,97967.75
2022-10-30T01:50:02.671Z,97970.31
2022-10-30T01:52:59.791Z,97945.19
2022-10-30T01:55:32.632Z,97963.47
2022-10-30T01:58:06.619Z,97936.56
2022-10-30T02:00:33.118Z,97959.16
2022-10-30T02:03:00.011Z,97948.72
2022-10-30T02:05:36.735Z,97956.59
2022-10-30T02:08:03.204Z,97963.47
2022-10-30T02:10:30.252Z,97953.16
2022-10-30T02:12:56.722Z,97939.31
2022-10-30T02:15:23.224Z,97952.38
2022-10-30T02:17:49.754Z,97948.09
2022-10-30T02:20:18.025Z,97943.78
2022-10-30T02:22:44.880Z,97943.78
2022-10-30T02:25:11.432Z,97944.69
2022-10-30T02:27:37.982Z,97947.25
2022-10-30T02:30:04.923Z,97940.34
2022-10-30T02:32:31.534Z,97928.22
2022-10-30T02:34:58.001Z,97936.78
2022-10-30T02:37:24.549Z,97935.97
2022-10-30T02:39:51.122Z,97942.03
2022-10-30T02:42:17.623Z,97940.34
2022-10-30T02:44:44.092Z,97937.84
2022-10-30T02:47:10.771Z,97934.44
2022-10-30T02:49:37.293Z,97939.56
2022-10-30T02:52:03.908Z,97937.78
2022-10-30T02:54:30.479Z,97937.00
2022-10-30T02:56:56.954Z,97934.44
2022-10-30T02:59:23.499Z,97925.81
2022-10-30T03:01:50.127Z,97925.84
2022-10-30T03:04:16.729Z,97929.31
2022-10-30T03:06:43.263Z,97931.03
2022-10-30T03:09:09.753Z,97929.31
2022-10-30T03:11:36.253Z,97935.28
2022-10-30T03:14:02.716Z,97929.31
2022-10-30T03:16:29.561Z,97930.06
2022-10-30T03:18:56.114Z,97930.97
2022-10-30T03:21:23.421Z,97924.09
2022-10-30T03:23:52.717Z,97918.06
2022-10-30T03:26:19.446Z,97932.66
2022-10-30T03:28:46.020Z,97928.41
2022-10-30T03:31:13.968Z,97929.31
2022-10-30T03:33:40.604Z,97934.38
2022-10-30T03:36:08.068Z,97932.66
2022-10-30T03:38:34.552Z,97933.53
2022-10-30T03:41:01.185Z,97937.78
2022-10-30T03:43:27.749Z,97931.72
2022-10-30T03:45:55.334Z,97934.38
2022-10-30T03:48:23.147Z,97933.53
2022-10-30T03:50:49.913Z,97936.09
2022-10-30T03:53:16.383Z,97936.09
2022-10-30T03:55:42.863Z,97933.53
2022-10-30T03:58:09.358Z,97937.78
2022-10-30T04:00:35.897Z,97930.97
2022-10-30T04:03:02.777Z,97917.97
2022-10-30T04:05:29.547Z,97924.13
2022-10-30T04:08:03.076Z,97933.53
2022-10-30T04:10:29.617Z,97930.97
2022-10-30T04:13:06.395Z,97928.41
2022-10-30T04:15:33.301Z,97925.81
2022-10-30T04:18:00.390Z,97931.88
2022-10-30T04:20:27.906Z,97931.88
2022-10-30T04:22:58.573Z,97935.19
2022-10-30T04:25:25.154Z,97934.38
2022-10-30T04:27:53.100Z,97932.66
2022-10-30T04:30:23.485Z,97919.66
2022-10-30T04:32:59.467Z,97925.66
2022-10-30T04:35:28.002Z,97926.69
2022-10-30T04:38:02.145Z,97930.94
2022-10-30T04:40:30.140Z,97935.22
2022-10-30T04:42:57.049Z,97919.63
2022-10-30T04:45:23.753Z,97932.66
2022-10-30T04:47:50.295Z,97930.94
2022-10-30T04:50:17.099Z,97930.94
2022-10-30T04:52:43.644Z,97933.50
2022-10-30T04:55:10.602Z,97932.66
2022-10-30T04:57:37.659Z,97927.34
2022-10-30T05:00:05.440Z,97924.78
2022-10-30T05:02:32.098Z,97936.09
2022-10-30T05:04:58.682Z,97935.22
2022-10-30T05:07:25.232Z,97928.31
2022-10-30T05:09:51.743Z,97928.41
2022-10-30T05:12:19.457Z,97926.75
2022-10-30T05:14:46.005Z,97925.84
2022-10-30T05:17:12.508Z,97928.41
2022-10-30T05:19:39.016Z,97915.50
2022-10-30T05:22:05.547Z,97913.78
2022-10-30T05:24:32.107Z,97916.44
2022-10-30T05:26:58.603Z,97912.16
2022-10-30T05:29:25.108Z,97903.63
2022-10-30T05:31:51.611Z,97911.28
2022-10-30T05:34:18.108Z,97907.88
2022-10-30T05:36:44.624Z,97902.75
2022-10-30T05:39:11.103Z,97907.88
2022-10-30T05:41:37.597Z,97901.06
2022-10-30T05:44:04.215Z,97900.19
2022-10-30T05:46:30.692Z,97904.47
2022-10-30T05:48:57.246Z,97910.47
2022-10-30T05:51:23.793Z,97914.72
2022-10-30T05:53:50.267Z,97915.56
2022-10-30T05:56:16.806Z,97915.56
2022-10-30T05:58:43.269Z,97919.84
2022-10-30T06:01:09.798Z,97923.28
2022-10-30T06:03:36.281Z,97922.41
2022-10-30T06:06:02.812Z,97922.31
2022-10-30T06:08:29.308Z,97922.41
2022-10-30T06:10:56.023Z,97918.97
2022-10-30T06:13:22.761Z,97915.50
2022-10-30T06:15:49.247Z,97916.34
2022-10-30T06:18:15.807Z,97933.50
2022-10-30T06:20:42.328Z,97927.50
2022-10-30T06:23:10.066Z,97934.38
2022-10-30T06:25:41.002Z,97934.38
2022-10-30T06:28:08.799Z,97933.50
2022-10-30T06:30:35.306Z,97939.50
2022-10-30T06:33:03.035Z,97940.31
2022-10-30T06:35:29.627Z,97941.19
2022-10-30T06:37:56.493Z,97953.13
2022-10-30T06:40:23.532Z,97943.56
2022-10-30T06:42:51.110Z,97949.72
2022-10-30T06:45:18.248Z,97948.03
2022-10-30T06:47:44.802Z,97953.16
2022-10-30T06:50:12.926Z,97944.53
2022-10-30T06:52:39.500Z,97930.75
2022-10-30T06:55:06.508Z,97941.13
2022-10-30T06:57:33.037Z,97953.16
2022-10-30T06:59:59.586Z,97948.03
2022-10-30T07:02:26.545Z,97951.47
2022-10-30T07:04:53.134Z,97955.72
2022-10-30T07:07:19.615Z,97955.72
2022-10-30T07:09:46.638Z,97962.56
2022-10-30T07:12:13.510Z,97964.25
2022-10-30T07:14:39.986Z,97960.00
2022-10-30T07:17:06.474Z,97962.56
2022-10-30T07:19:32.978Z,97957.34
2022-10-30T07:22:00.875Z,97958.25
2022-10-30T07:24:27.381Z,97965.13
2022-10-30T07:26:55.018Z,97951.25
2022-10-30T07:29:21.559Z,97965.13
2022-10-30T07:32:02.192Z,97959.94
2022-10-30T07:34:29.117Z,97959.13
2022-10-30T07:36:55.627Z,97954.00
2022-10-30T07:39:22.103Z,97951.44
2022-10-30T07:41:50.578Z,97956.56
2022-10-30T07:44:17.293Z,97961.69
2022-10-30T07:46:43.811Z,97962.56
2022-10-30T07:49:10.306Z,97965.13
2022-10-30T07:51:36.769Z,97966.03
2022-10-30T07:54:03.339Z,97956.59
2022-10-30T07:56:29.858Z,97957.44
2022-10-30T07:58:56.329Z,97962.56
2022-10-30T08:01:23.180Z,97963.41
2022-10-30T08:03:49.737Z,97953.06
2022-10-30T08:06:16.261Z,97954.00
2022-10-30T08:08:43.567Z,97965.97
2022-10-30T08:11:10.276Z,97968.50
2022-10-30T08:13:36.905Z,97969.38
2022-10-30T08:16:03.452Z,97959.03
2022-10-30T08:18:29.979Z,97966.81
2022-10-30T08:20:56.482Z,97949.50
2022-10-30T08:23:23.074Z,97954.00
2022-10-30T08:25:49.684Z,97959.94
2022-10-30T08:28:16.171Z,97954.00
2022-10-30T08:30:42.689Z,97951.25
2022-10-30T08:33:13.550Z,97947.09
2022-10-30T08:35:47.205Z,97959.13
2022-10-30T08:38:13.677Z,97951.44
2022-10-30T08:40:40.142Z,97950.59
2022-10-30T08:43:06.665Z,97956.56
2022-10-30T08:45:33.124Z,97954.72
2022-10-30T08:48:01.179Z,97965.97
2022-10-30T08:50:28.050Z,97969.41
2022-10-30T08:52:54.908Z,97970.25
2022-10-30T08:55:21.554Z,97971.09
2022-10-30T08:57:48.131Z,97958.28
2022-10-30T09:00:14.721Z,97962.56
2022-10-30T09:02:41.372Z,97961.69
2022-10-30T09:05:09.053Z,97968.53
2022-10-30T09:07:35.888Z,97963.38
2022-10-30T09:10:02.766Z,97952.06
2022-10-30T09:12:29.326Z,97970.25
2022-10-30T09:14:55.809Z,97965.94
2022-10-30T09:17:22.305Z,97971.06
2022-10-30T09:22:20.175Z,97977.94
2022-10-30T09:24:46.646Z,97974.53
2022-10-30T09:27:13.328Z,97974.50
2022-10-30T09:29:39.801Z,97973.63
2022-10-30T09:32:10.129Z,97975.34
2022-10-30T09:34:38.152Z,97949.38
2022-10-30T09:37:04.685Z,97971.00
2022-10-30T09:39:31.402Z,97974.50
2022-10-30T09:42:26.616Z,97971.09
2022-10-30T09:45:33.445Z,97971.94
2022-10-30T09:48:28.065Z,97970.25
2022-10-30T09:51:06.011Z,97961.63
2022-10-30T09:54:15.275Z,97970.25
2022-10-30T09:56:46.822Z,97962.53
2022-10-30T09:59:36.318Z,97956.47
2022-10-30T10:02:31.681Z,97963.41
2022-10-30T10:05:19.637Z,97979.63
2022-10-30T10:07:49.016Z,97954.84
2022-10-30T10:10:43.351Z,97958.25
2022-10-30T10:13:38.897Z,97944.28
2022-10-30T10:16:31.077Z,97955.69
2022-10-30T10:19:18.565Z,97961.63
2022-10-30T10:21:47.576Z,97959.06
2022-10-30T10:24:30.633Z,97959.06
2022-10-30T10:27:18.349Z,97938.03
2022-10-30T10:29:51.061Z,97954.84
2022-10-30T10:32:23.735Z,97952.25
2022-10-30T10:35:05.383Z,97953.13
2022-10-30T10:37:34.893Z,97949.75
2022-10-30T10:40:22.267Z,97943.75
2022-10-30T10:42:57.634Z,97948.88
2022-10-30T10:45:45.540Z,97938.63
2022-10-30T10:48:30.292Z,97942.06
2022-10-30T10:51:07.052Z,97918.72
2022-10-30T10:53:55.305Z,97936.06
2022-10-30T10:56:24.263Z,97930.94
2022-10-30T10:59:15.182Z,97932.63
2022-10-30T11:01:44.797Z,97909.22
2022-10-30T11:04:14.832Z,97910.16
2022-10-30T11:06:42.556Z,97919.81
2022-10-30T11:09:19.922Z,97922.38
2022-10-30T11:11:50.427Z,97908.72
2022-10-30T11:14:38.610Z,97907.00
2022-10-30T11:17:43.983Z,97901.88
2022-10-30T11:20:19.990Z,97906.16
2022-10-30T11:22:50.225Z,97906.16
2022-10-30T11:25:20.702Z,97899.31
2022-10-30T11:27:48.687Z,97892.44
2022-10-30T11:30:22.259Z,97895.06
2022-10-30T11:32:48.802Z,97887.38
2022-10-30T11:35:19.142Z,97892.50
2022-10-30T11:38:02.903Z,97895.00
2022-10-30T11:40:29.409Z,97893.34
2022-10-30T11:43:01.487Z,97865.66
2022-10-30T11:45:28.255Z,97889.97
2022-10-30T11:47:56.093Z,97862.25
2022-10-30T11:50:33.864Z,97875.44
2022-10-30T11:53:12.229Z,97871.78
2022-10-30T11:55:40.063Z,97867.53
2022-10-30T11:58:09.835Z,97877.06
2022-10-30T12:00:36.518Z,97857.22
2022-10-30T12:03:05.767Z,97878.81
2022-10-30T12:05:41.664Z,97873.69
2022-10-30T12:08:10.232Z,97875.44
2022-10-30T12:10:52.409Z,97863.28
2022-10-30T12:13:19.906Z,97861.66
2022-10-30T12:15:47.946Z,97869.44
2022-10-30T12:18:21.437Z,97848.72
2022-10-30T12:20:51.032Z,97860.91
2022-10-30T12:23:20.552Z,97859.19
2022-10-30T12:25:47.439Z,97831.53
2022-10-30T12:28:15.781Z,97854.94
2022-10-30T12:31:00.670Z,97845.41
2022-10-30T12:33:37.113Z,97843.72
2022-10-30T12:36:06.713Z,97835.03
2022-10-30T12:38:35.549Z,97839.53
2022-10-30T12:41:26.339Z,97847.25
2022-10-30T12:44:17.032Z,97844.69
2022-10-30T12:46:48.802Z,97835.25
2022-10-30T12:49:37.091Z,97834.44
2022-10-30T12:52:12.547Z,97838.72
2022-10-30T12:54:54.130Z,97835.25
2022-10-30T12:57:22.662Z,97832.69
2022-10-30T13:00:02.891Z,97832.69
2022-10-30T13:03:00.783Z,97823.94
2022-10-30T13:05:48.072Z,97828.44
2022-10-30T13:08:35.026Z,97821.53
2022-10-30T13:11:12.043Z,97793.84
2022-10-30T13:13:41.248Z,97842.09
2022-10-30T13:16:20.391Z,97823.28
2022-10-30T13:18:46.894Z,97824.19
2022-10-30T13:21:25.212Z,97825.00
2022-10-30T13:24:02.182Z,97825.88
2022-10-30T13:26:34.531Z,97813.94
2022-10-30T13:29:34.004Z,97824.19
2022-10-30T13:32:00.363Z,97817.34
2022-10-30T13:34:36.261Z,97813.06
2022-10-30T13:37:16.473Z,97812.22
2022-10-30T13:40:02.706Z,97808.81
2022-10-30T13:42:32.056Z,97815.66
2022-10-30T13:45:07.922Z,97812.22
2022-10-30T13:47:54.650Z,97813.94
2022-10-30T13:50:49.698Z,97806.25
2022-10-30T13:53:19.010Z,97813.06
2022-10-30T13:55:45.531Z,97807.97
2022-10-30T13:58:46.170Z,97813.94
2022-10-30T14:01:24.036Z,97813.94
2022-10-30T14:04:07.747Z,97810.50
2022-10-30T14:06:46.542Z,97813.06
2022-10-30T14:09:48.596Z,97810.50
2022-10-30T14:12:46.401Z,97813.94
2022-10-30T14:15:31.050Z,97803.59
2022-10-30T14:18:24.629Z,97806.25
2022-10-30T14:20:52.055Z,97809.66
2022-10-30T14:23:29.817Z,97810.50
2022-10-30T14:26:02.557Z,97812.22
2022-10-30T14:28:35.983Z,97803.56
2022-10-30T14:31:03.330Z,97816.50
2022-10-30T14:33:52.545Z,97812.22
2022-10-30T14:36:34.505Z,97809.66
2022-10-30T14:39:02.219Z,97814.78
2022-10-30T14:41:49.974Z,97791.38
2022-10-30T14:44:19.355Z,97811.38
2022-10-30T14:47:04.125Z,97813.94
2022-10-30T14:49:57.797Z,97815.63
2022-10-30T14:52:43.149Z,97817.34
2022-10-30T14:55:28.264Z,97811.38
2022-10-30T14:58:01.142Z,97807.94
2022-10-30T15:00:41.090Z,97805.38
2022-10-30T15:03:12.003Z,97806.25
2022-10-30T15:06:06.320Z,97805.38
2022-10-30T15:08:43.065Z,97807.94
2022-10-30T15:11:18.138Z,97809.66
2022-10-30T15:13:50.507Z,97819.91
2022-10-30T15:16:17.949Z,97819.06
2022-10-30T15:18:49.210Z,97824.19
2022-10-30T15:21:20.534Z,97819.91
2022-10-30T15:23:47.032Z,97813.06
2022-10-30T15:26:23.374Z,97823.31
2022-10-30T15:28:50.443Z,97828.47
2022-10-30T15:31:27.064Z,97810.47
2022-10-30T15:33:58.026Z,97815.66
2022-10-30T15:36:28.410Z,97809.50
2022-10-30T15:39:07.623Z,97813.91
2022-10-30T15:41:53.752Z,97833.59
2022-10-30T15:44:28.521Z,97799.16
2022-10-30T15:46:55.914Z,97819.91
2022-10-30T15:49:35.195Z,97819.06
2022-10-30T15:52:06.318Z,97799.06
2022-10-30T15:54:32.811Z,97819.06
2022-10-30T15:57:31.707Z,97826.75
2022-10-30T15:59:54.493Z,97815.44
2022-10-30T16:02:23.089Z,97818.19
2022-10-30T16:04:49.954Z,97807.75
2022-10-30T16:07:21.678Z,97817.34
2022-10-30T16:10:01.543Z,97826.75
2022-10-30T16:12:32.387Z,97830.16
2022-10-30T16:15:07.874Z,97818.06
2022-10-30T16:17:34.374Z,97827.59
2022-10-30T16:20:01.850Z,97831.84
2022-10-30T16:22:29.848Z,97831.94
2022-10-30T16:24:56.411Z,97823.28
2022-10-30T16:27:23.677Z,97825.00
2022-10-30T16:29:55.512Z,97833.59
2022-10-30T16:32:24.751Z,97831.03
2022-10-30T16:34:51.221Z,97811.91
2022-10-30T16:37:23.259Z,97836.97
2022-10-30T16:39:50.248Z,97840.41
2022-10-30T16:42:21.398Z,97837.00
2022-10-30T16:44:48.052Z,97837.00
2022-10-30T16:47:17.241Z,97840.41
2022-10-30T16:49:52.138Z,97840.41
2022-10-30T16:52:18.669Z,97837.84
2022-10-30T16:54:49.560Z,97840.31
2022-10-30T16:57:36.827Z,97846.38
2022-10-30T17:00:04.193Z,97849.81
2022-10-30T17:02:33.483Z,97848.09
2022-10-30T17:05:16.843Z,97848.09
2022-10-30T17:07:56.713Z,97848.94
2022-10-30T17:10:37.671Z,97850.66
2022-10-30T17:13:32.424Z,97852.38
2022-10-30T17:18:31.382Z,97847.25
2022-10-30T17:21:08.786Z,97863.47
2022-10-30T17:23:35.311Z,97854.94
2022-10-30T17:26:09.668Z,97852.28
2022-10-30T17:28:36.434Z,97859.19
2022-10-30T17:31:18.169Z,97860.91
2022-10-30T17:34:04.539Z,97862.63
2022-10-30T17:36:31.036Z,97869.44
2022-10-30T17:38:57.535Z,97872.88
2022-10-30T17:41:24.038Z,97866.81
2022-10-30T17:43:55.362Z,97860.72
2022-10-30T17:46:22.348Z,97876.25
2022-10-30T17:48:49.848Z,97874.56
2022-10-30T17:51:16.835Z,97873.53
2022-10-30T17:53:43.566Z,97877.06
2022-10-30T17:56:25.030Z,97881.41
2022-10-30T17:58:51.588Z,97882.25
2022-10-30T18:01:25.214Z,97884.81
2022-10-30T18:03:52.591Z,97877.03
2022-10-30T18:06:21.493Z,97883.97
2022-10-30T18:08:50.705Z,97880.47
2022-10-30T18:11:19.977Z,97889.94
2022-10-30T18:13:46.798Z,97892.50
2022-10-30T18:16:13.868Z,97889.09
2022-10-30T18:18:40.835Z,97895.06
2022-10-30T18:21:13.817Z,97895.94
2022-10-30T18:23:52.464Z,97894.22
2022-10-30T18:26:21.485Z,97887.13
2022-10-30T18:28:47.989Z,97891.66
2022-10-30T18:31:15.949Z,97901.91
2022-10-30T18:33:42.557Z,97879.41
2022-10-30T18:36:16.170Z,97896.75
2022-10-30T18:38:42.699Z,97903.63
2022-10-30T18:41:32.847Z,97896.75
2022-10-30T18:43:59.519Z,97897.63
2022-10-30T18:46:26.150Z,97895.06
2022-10-30T18:48:52.604Z,97880.34
2022-10-30T18:51:21.606Z,97893.34
2022-10-30T18:53:54.102Z,97889.06
2022-10-30T18:56:24.928Z,97898.41
2022-10-30T18:58:54.846Z,97888.16
2022-10-30T19:01:25.163Z,97889.94
2022-10-30T19:03:51.749Z,97894.19
2022-10-30T19:06:19.946Z,97889.00
2022-10-30T19:08:46.469Z,97889.94
2022-10-30T19:11:14.132Z,97895.06
2022-10-30T19:13:40.755Z,97893.38
2022-10-30T19:16:10.622Z,97889.75
2022-10-30T19:18:37.093Z,97893.38
2022-10-30T19:21:05.808Z,97898.50
2022-10-30T19:23:34.589Z,97890.81
2022-10-30T19:26:01.150Z,97904.47
2022-10-30T19:28:29.127Z,97898.50
2022-10-30T19:30:55.619Z,97890.81
2022-10-30T19:33:22.797Z,97901.81
2022-10-30T19:35:56.523Z,97901.06
2022-10-30T19:38:23.095Z,97889.75
2022-10-30T19:40:49.605Z,97899.31
2022-10-30T19:43:16.109Z,97901.88
2022-10-30T19:45:42.641Z,97901.72
2022-10-30T19:48:17.763Z,97891.34
2022-10-30T19:50:47.303Z,97905.22
2022-10-30T19:53:13.831Z,97905.31
2022-10-30T19:55:41.437Z,97912.06
2022-10-30T19:58:11.590Z,97910.44
2022-10-30T20:00:39.196Z,97910.44
2022-10-30T20:03:06.794Z,97917.25
2022-10-30T20:05:35.140Z,97915.56
2022-10-30T20:08:11.306Z,97912.13
2022-10-30T20:10:38.870Z,97910.44
2022-10-30T20:13:08.928Z,97917.28
2022-10-30T20:15:35.495Z,97913.88
2022-10-30T20:18:02.468Z,97917.25
2022-10-30T20:20:30.886Z,97922.41
2022-10-30T20:22:57.551Z,97917.28
2022-10-30T20:25:24.475Z,97916.44
2022-10-30T20:30:23.199Z,97915.56
2022-10-30T20:32:49.926Z,97905.31
2022-10-30T20:35:17.498Z,97912.13
2022-10-30T20:37:45.001Z,97917.25
2022-10-30T20:40:15.226Z,97915.56
2022-10-30T20:42:42.703Z,97917.25
2022-10-30T20:45:20.237Z,97921.53
2022-10-30T20:47:47.691Z,97925.81
2022-10-30T20:50:14.472Z,97934.38
2022-10-30T20:52:40.947Z,97933.44
2022-10-30T20:55:08.118Z,97926.66
2022-10-30T20:57:34.806Z,97927.50
2022-10-30T21:00:01.716Z,97931.66
2022-10-30T21:02:28.572Z,97933.50
2022-10-30T21:04:55.153Z,97939.50
2022-10-30T21:07:27.283Z,97941.19
2022-10-30T21:09:53.801Z,97942.06
2022-10-30T21:12:20.344Z,97932.53
2022-10-30T21:14:46.812Z,97942.88
2022-10-30T21:17:13.296Z,97945.44
2022-10-30T21:19:39.816Z,97948.88
2022-10-30T21:22:06.302Z,97951.44
2022-10-30T21:24:32.814Z,97950.56
2022-10-30T21:26:59.358Z,97947.19
2022-10-30T21:29:26.302Z,97939.41
2022-10-30T21:31:53.867Z,97947.16
2022-10-30T21:34:20.390Z,97942.03
2022-10-30T21:36:46.858Z,97949.72
2022-10-30T21:39:13.358Z,97945.44
2022-10-30T21:41:39.879Z,97942.03
2022-10-30T21:44:06.430Z,97945.44
2022-10-30T21:46:32.917Z,97942.03
2022-10-30T21:49:06.279Z,97948.00
2022-10-30T21:51:33.070Z,97932.47
2022-10-30T21:53:59.702Z,97838.28
2022-10-30T21:56:27.894Z,97941.19
2022-10-30T21:58:55.281Z,97940.31
2022-10-30T22:01:29.504Z,97939.44
2022-10-30T22:03:56.096Z,97942.03
2022-10-30T22:06:22.726Z,97945.44
2022-10-30T22:08:50.622Z,97942.88
2022-10-30T22:11:17.210Z,97944.59
2022-10-30T22:13:43.926Z,97940.31
2022-10-30T22:16:11.658Z,97935.09
2022-10-30T22:18:38.148Z,97936.06
2022-10-30T22:21:06.502Z,97930.94
2022-10-30T22:23:33.117Z,97924.09
2022-10-30T22:26:02.016Z,97924.88
2022-10-30T22:28:29.300Z,97894.44
2022-10-30T22:31:00.688Z,97918.97
2022-10-30T22:33:27.202Z,97915.50
2022-10-30T22:35:53.679Z,97917.25
2022-10-30T22:38:20.159Z,97911.28
2022-10-30T22:40:46.682Z,97912.94
2022-10-30T22:43:13.240Z,97915.50
2022-10-30T22:45:39.741Z,97912.03
2022-10-30T22:48:06.583Z,97915.50
2022-10-30T22:50:33.081Z,97926.66
2022-10-30T22:52:59.623Z,97911.19
2022-10-30T22:55:26.290Z,97926.66
2022-10-30T22:57:53.929Z,97931.78
2022-10-30T23:00:27.566Z,97936.00
2022-10-30T23:02:54.781Z,97933.50
2022-10-30T23:05:22.250Z,97931.78
2022-10-30T23:07:50.988Z,97931.78
2022-10-30T23:10:17.471Z,97928.38
2022-10-30T23:12:43.980Z,97926.66
2022-10-30T23:15:10.830Z,97917.16
2022-10-30T23:17:37.337Z,97922.38
2022-10-30T23:20:05.478Z,97924.03
2022-10-30T23:22:31.990Z,97924.94
2022-10-30T23:24:58.459Z,97918.03
2022-10-30T23:27:24.938Z,97924.09
2022-10-30T23:29:51.462Z,97919.66
2022-10-30T23:32:17.940Z,97932.63
2022-10-30T23:34:44.418Z,97919.75
2022-10-30T23:37:10.922Z,97926.66
2022-10-30T23:39:37.430Z,97922.38
2022-10-30T23:42:03.974Z,97930.06
2022-10-30T23:44:30.467Z,97931.78
2022-10-30T23:46:57.735Z,97930.00
2022-10-30T23:49:24.243Z,97923.19
2022-10-30T23:51:50.755Z,97927.44
2022-10-30T23:54:17.272Z,97930.88
2022-10-30T23:56:43.788Z,97927.44
2022-10-30T23:59:10.269Z,97930.88
